sensor_id;sensor_type;location;lat;lon;timestamp;P1;durP1;ratioP1;P2;durP2;ratioP2
37793;SDS011;23632;48.826;15.176;2022-09-01T00:00:00;0.60;;;0.60;;
37793;SDS011;23632;48.826;15.176;2022-09-01T00:02:33;0.60;;;0.60;;
37793;SDS011;23632;48.826;15.176;2022-09-01T00:05:01;0.60;;;0.60;;
37793;SDS011;23632;48.826;15.176;2022-09-01T00:07:31;0.60;;;0.60;;
37793;SDS011;23632;48.826;15.176;2022-09-01T00:10:01;0.60;;;0.60;;
37793;SDS011;23632;48.826;15.176;2022-09-01T00:12:32;0.50;;;0.50;;
37793;SDS011;23632;48.826;15.176;2022-09-01T00:15:00;0.80;;;0.80;;
37793;SDS011;23632;48.826;15.176;2022-09-01T00:17:27;0.60;;;0.60;;
37793;SDS011;23632;48.826;15.176;2022-09-01T00:19:55;0.60;;;0.60;;
37793;SDS011;23632;48.826;15.176;2022-09-01T00:22:22;0.50;;;0.50;;
37793;SDS011;23632;48.826;15.176;2022-09-01T00:24:49;0.50;;;0.50;;
37793;SDS011;23632;48.826;15.176;2022-09-01T00:27:17;0.60;;;0.60;;
37793;SDS011;23632;48.826;15.176;2022-09-01T00:29:44;0.55;;;0.55;;
37793;SDS011;23632;48.826;15.176;2022-09-01T00:32:11;0.60;;;0.60;;
37793;SDS011;23632;48.826;15.176;2022-09-01T00:34:39;0.60;;;0.60;;
37793;SDS011;23632;48.826;15.176;2022-09-01T00:37:06;0.60;;;0.60;;
37793;SDS011;23632;48.826;15.176;2022-09-01T00:39:34;0.60;;;0.60;;
37793;SDS011;23632;48.826;15.176;2022-09-01T00:42:01;0.50;;;0.50;;
37793;SDS011;23632;48.826;15.176;2022-09-01T00:44:29;0.50;;;0.50;;
37793;SDS011;23632;48.826;15.176;2022-09-01T00:46:57;0.57;;;0.57;;
37793;SDS011;23632;48.826;15.176;2022-09-01T00:49:29;0.60;;;0.60;;
37793;SDS011;23632;48.826;15.176;2022-09-01T00:52:04;0.60;;;0.60;;
37793;SDS011;23632;48.826;15.176;2022-09-01T00:54:37;0.60;;;0.60;;
37793;SDS011;23632;48.826;15.176;2022-09-01T00:57:08;0.63;;;0.63;;
37793;SDS011;23632;48.826;15.176;2022-09-01T00:59:37;0.60;;;0.60;;
37793;SDS011;23632;48.826;15.176;2022-09-01T01:02:41;0.60;;;0.60;;
37793;SDS011;23632;48.826;15.176;2022-09-01T01:05:10;0.60;;;0.60;;
37793;SDS011;23632;48.826;15.176;2022-09-01T01:07:41;0.60;;;0.60;;
37793;SDS011;23632;48.826;15.176;2022-09-01T01:10:13;0.50;;;0.50;;
37793;SDS011;23632;48.826;15.176;2022-09-01T01:12:43;0.52;;;0.52;;
37793;SDS011;23632;48.826;15.176;2022-09-01T01:15:11;0.70;;;0.70;;
37793;SDS011;23632;48.826;15.176;2022-09-01T01:17:40;0.60;;;0.60;;
37793;SDS011;23632;48.826;15.176;2022-09-01T01:20:07;0.60;;;0.60;;
37793;SDS011;23632;48.826;15.176;2022-09-01T01:23:02;0.60;;;0.60;;
37793;SDS011;23632;48.826;15.176;2022-09-01T01:26:04;0.70;;;0.70;;
37793;SDS011;23632;48.826;15.176;2022-09-01T01:28:37;0.70;;;0.70;;
37793;SDS011;23632;48.826;15.176;2022-09-01T01:31:08;0.60;;;0.60;;
37793;SDS011;23632;48.826;15.176;2022-09-01T01:33:50;0.60;;;0.60;;
37793;SDS011;23632;48.826;15.176;2022-09-01T01:36:23;0.60;;;0.60;;
37793;SDS011;23632;48.826;15.176;2022-09-01T01:39:02;0.70;;;0.70;;
37793;SDS011;23632;48.826;15.176;2022-09-01T01:41:47;0.70;;;0.70;;
37793;SDS011;23632;48.826;15.176;2022-09-01T01:44:18;0.60;;;0.60;;
37793;SDS011;23632;48.826;15.176;2022-09-01T01:46:58;0.60;;;0.60;;
37793;SDS011;23632;48.826;15.176;2022-09-01T01:49:28;0.50;;;0.50;;
37793;SDS011;23632;48.826;15.176;2022-09-01T01:51:56;0.50;;;0.50;;
37793;SDS011;23632;48.826;15.176;2022-09-01T01:54:28;0.60;;;0.60;;
37793;SDS011;23632;48.826;15.176;2022-09-01T01:56:57;0.60;;;0.60;;
37793;SDS011;23632;48.826;15.176;2022-09-01T01:59:26;0.70;;;0.70;;
37793;SDS011;23632;48.826;15.176;2022-09-01T02:01:54;0.60;;;0.60;;
37793;SDS011;23632;48.826;15.176;2022-09-01T02:04:22;0.50;;;0.50;;
37793;SDS011;23632;48.826;15.176;2022-09-01T02:06:51;0.60;;;0.60;;
37793;SDS011;23632;48.826;15.176;2022-09-01T02:09:20;0.70;;;0.70;;
37793;SDS011;23632;48.826;15.176;2022-09-01T02:11:49;0.45;;;0.45;;
37793;SDS011;23632;48.826;15.176;2022-09-01T02:14:22;0.60;;;0.60;;
37793;SDS011;23632;48.826;15.176;2022-09-01T02:16:50;0.60;;;0.60;;
37793;SDS011;23632;48.826;15.176;2022-09-01T02:19:18;0.80;;;0.80;;
37793;SDS011;23632;48.826;15.176;2022-09-01T02:21:46;0.70;;;0.70;;
37793;SDS011;23632;48.826;15.176;2022-09-01T02:24:19;0.60;;;0.60;;
37793;SDS011;23632;48.826;15.176;2022-09-01T02:26:47;0.60;;;0.60;;
37793;SDS011;23632;48.826;15.176;2022-09-01T02:29:18;0.60;;;0.60;;
37793;SDS011;23632;48.826;15.176;2022-09-01T02:31:49;0.50;;;0.50;;
37793;SDS011;23632;48.826;15.176;2022-09-01T02:34:19;0.50;;;0.50;;
37793;SDS011;23632;48.826;15.176;2022-09-01T02:36:52;0.80;;;0.80;;
37793;SDS011;23632;48.826;15.176;2022-09-01T02:39:24;0.70;;;0.70;;
37793;SDS011;23632;48.826;15.176;2022-09-01T02:41:59;0.60;;;0.60;;
37793;SDS011;23632;48.826;15.176;2022-09-01T02:44:28;0.60;;;0.60;;
37793;SDS011;23632;48.826;15.176;2022-09-01T02:46:58;0.70;;;0.70;;
37793;SDS011;23632;48.826;15.176;2022-09-01T02:49:27;0.60;;;0.60;;
37793;SDS011;23632;48.826;15.176;2022-09-01T02:51:57;0.60;;;0.60;;
37793;SDS011;23632;48.826;15.176;2022-09-01T02:54:29;0.60;;;0.60;;
37793;SDS011;23632;48.826;15.176;2022-09-01T02:56:58;0.70;;;0.70;;
37793;SDS011;23632;48.826;15.176;2022-09-01T02:59:26;0.60;;;0.60;;
37793;SDS011;23632;48.826;15.176;2022-09-01T03:01:59;0.68;;;0.68;;
37793;SDS011;23632;48.826;15.176;2022-09-01T03:04:26;0.60;;;0.60;;
37793;SDS011;23632;48.826;15.176;2022-09-01T03:07:02;0.52;;;0.52;;
37793;SDS011;23632;48.826;15.176;2022-09-01T03:09:31;0.60;;;0.60;;
37793;SDS011;23632;48.826;15.176;2022-09-01T03:11:59;0.70;;;0.70;;
37793;SDS011;23632;48.826;15.176;2022-09-01T03:14:26;0.60;;;0.60;;
37793;SDS011;23632;48.826;15.176;2022-09-01T03:16:55;0.60;;;0.60;;
37793;SDS011;23632;48.826;15.176;2022-09-01T03:19:23;0.60;;;0.60;;
37793;SDS011;23632;48.826;15.176;2022-09-01T03:21:50;0.60;;;0.60;;
37793;SDS011;23632;48.826;15.176;2022-09-01T03:24:21;0.65;;;0.65;;
37793;SDS011;23632;48.826;15.176;2022-09-01T03:26:50;0.80;;;0.80;;
37793;SDS011;23632;48.826;15.176;2022-09-01T03:29:18;0.65;;;0.65;;
37793;SDS011;23632;48.826;15.176;2022-09-01T03:31:45;0.60;;;0.60;;
37793;SDS011;23632;48.826;15.176;2022-09-01T03:34:13;0.60;;;0.60;;
37793;SDS011;23632;48.826;15.176;2022-09-01T03:36:46;0.60;;;0.60;;
37793;SDS011;23632;48.826;15.176;2022-09-01T03:39:24;0.70;;;0.70;;
37793;SDS011;23632;48.826;15.176;2022-09-01T03:41:51;0.70;;;0.70;;
37793;SDS011;23632;48.826;15.176;2022-09-01T03:44:19;0.70;;;0.70;;
37793;SDS011;23632;48.826;15.176;2022-09-01T03:46:46;0.70;;;0.70;;
37793;SDS011;23632;48.826;15.176;2022-09-01T03:49:13;0.70;;;0.70;;
37793;SDS011;23632;48.826;15.176;2022-09-01T03:51:42;0.70;;;0.70;;
37793;SDS011;23632;48.826;15.176;2022-09-01T03:54:10;0.65;;;0.65;;
37793;SDS011;23632;48.826;15.176;2022-09-01T03:56:38;0.70;;;0.70;;
37793;SDS011;23632;48.826;15.176;2022-09-01T03:59:11;0.60;;;0.60;;
37793;SDS011;23632;48.826;15.176;2022-09-01T04:01:44;0.73;;;0.73;;
37793;SDS011;23632;48.826;15.176;2022-09-01T04:04:13;0.70;;;0.70;;
37793;SDS011;23632;48.826;15.176;2022-09-01T04:06:41;0.70;;;0.70;;
37793;SDS011;23632;48.826;15.176;2022-09-01T04:09:12;0.70;;;0.70;;
37793;SDS011;23632;48.826;15.176;2022-09-01T04:11:42;0.60;;;0.60;;
37793;SDS011;23632;48.826;15.176;2022-09-01T04:14:14;0.70;;;0.70;;
37793;SDS011;23632;48.826;15.176;2022-09-01T04:16:43;0.60;;;0.60;;
37793;SDS011;23632;48.826;15.176;2022-09-01T04:19:34;0.60;;;0.60;;
37793;SDS011;23632;48.826;15.176;2022-09-01T04:22:05;0.60;;;0.60;;
37793;SDS011;23632;48.826;15.176;2022-09-01T04:24:42;0.70;;;0.70;;
37793;SDS011;23632;48.826;15.176;2022-09-01T04:27:12;0.80;;;0.80;;
37793;SDS011;23632;48.826;15.176;2022-09-01T04:29:41;0.60;;;0.60;;
37793;SDS011;23632;48.826;15.176;2022-09-01T04:32:09;0.70;;;0.70;;
37793;SDS011;23632;48.826;15.176;2022-09-01T04:34:41;0.60;;;0.60;;
37793;SDS011;23632;48.826;15.176;2022-09-01T04:37:13;0.60;;;0.60;;
37793;SDS011;23632;48.826;15.176;2022-09-01T04:39:50;0.75;;;0.75;;
37793;SDS011;23632;48.826;15.176;2022-09-01T04:42:24;0.60;;;0.60;;
37793;SDS011;23632;48.826;15.176;2022-09-01T04:44:57;0.65;;;0.65;;
37793;SDS011;23632;48.826;15.176;2022-09-01T04:47:35;0.73;;;0.73;;
37793;SDS011;23632;48.826;15.176;2022-09-01T04:50:08;0.70;;;0.70;;
37793;SDS011;23632;48.826;15.176;2022-09-01T04:52:57;0.80;;;0.80;;
37793;SDS011;23632;48.826;15.176;2022-09-01T04:55:30;0.60;;;0.60;;
37793;SDS011;23632;48.826;15.176;2022-09-01T04:57:57;0.60;;;0.60;;
37793;SDS011;23632;48.826;15.176;2022-09-01T05:00:33;0.70;;;0.70;;
37793;SDS011;23632;48.826;15.176;2022-09-01T05:03:02;0.70;;;0.70;;
37793;SDS011;23632;48.826;15.176;2022-09-01T05:05:53;0.80;;;0.80;;
37793;SDS011;23632;48.826;15.176;2022-09-01T05:08:21;0.60;;;0.60;;
37793;SDS011;23632;48.826;15.176;2022-09-01T05:10:52;0.70;;;0.70;;
37793;SDS011;23632;48.826;15.176;2022-09-01T05:13:44;0.80;;;0.80;;
37793;SDS011;23632;48.826;15.176;2022-09-01T05:16:18;0.60;;;0.60;;
37793;SDS011;23632;48.826;15.176;2022-09-01T05:18:53;0.60;;;0.60;;
37793;SDS011;23632;48.826;15.176;2022-09-01T05:21:24;0.60;;;0.60;;
37793;SDS011;23632;48.826;15.176;2022-09-01T05:23:52;0.40;;;0.40;;
37793;SDS011;23632;48.826;15.176;2022-09-01T05:26:25;0.60;;;0.60;;
37793;SDS011;23632;48.826;15.176;2022-09-01T05:28:56;0.60;;;0.60;;
37793;SDS011;23632;48.826;15.176;2022-09-01T05:31:27;0.60;;;0.60;;
37793;SDS011;23632;48.826;15.176;2022-09-01T05:34:00;0.80;;;0.80;;
37793;SDS011;23632;48.826;15.176;2022-09-01T05:36:28;0.60;;;0.60;;
37793;SDS011;23632;48.826;15.176;2022-09-01T05:38:59;0.60;;;0.60;;
37793;SDS011;23632;48.826;15.176;2022-09-01T05:41:27;0.60;;;0.60;;
37793;SDS011;23632;48.826;15.176;2022-09-01T05:43:54;0.70;;;0.70;;
37793;SDS011;23632;48.826;15.176;2022-09-01T05:46:26;0.60;;;0.60;;
37793;SDS011;23632;48.826;15.176;2022-09-01T05:48:56;0.60;;;0.60;;
37793;SDS011;23632;48.826;15.176;2022-09-01T05:51:24;0.60;;;0.60;;
37793;SDS011;23632;48.826;15.176;2022-09-01T05:54:12;0.60;;;0.60;;
37793;SDS011;23632;48.826;15.176;2022-09-01T05:56:40;0.60;;;0.60;;
37793;SDS011;23632;48.826;15.176;2022-09-01T05:59:13;0.60;;;0.60;;
37793;SDS011;23632;48.826;15.176;2022-09-01T06:01:54;0.60;;;0.60;;
37793;SDS011;23632;48.826;15.176;2022-09-01T06:04:23;0.50;;;0.50;;
37793;SDS011;23632;48.826;15.176;2022-09-01T06:06:55;0.65;;;0.65;;
37793;SDS011;23632;48.826;15.176;2022-09-01T06:09:38;0.70;;;0.70;;
37793;SDS011;23632;48.826;15.176;2022-09-01T06:12:09;0.60;;;0.60;;
37793;SDS011;23632;48.826;15.176;2022-09-01T06:14:47;0.60;;;0.60;;
37793;SDS011;23632;48.826;15.176;2022-09-01T06:17:17;0.60;;;0.60;;
37793;SDS011;23632;48.826;15.176;2022-09-01T06:19:54;0.60;;;0.60;;
37793;SDS011;23632;48.826;15.176;2022-09-01T06:22:25;0.60;;;0.60;;
37793;SDS011;23632;48.826;15.176;2022-09-01T06:24:56;0.60;;;0.60;;
37793;SDS011;23632;48.826;15.176;2022-09-01T06:27:32;0.60;;;0.60;;
37793;SDS011;23632;48.826;15.176;2022-09-01T06:29:59;0.60;;;0.60;;
37793;SDS011;23632;48.826;15.176;2022-09-01T06:32:33;0.60;;;0.60;;
37793;SDS011;23632;48.826;15.176;2022-09-01T06:35:04;0.50;;;0.50;;
37793;SDS011;23632;48.826;15.176;2022-09-01T06:37:34;0.60;;;0.60;;
37793;SDS011;23632;48.826;15.176;2022-09-01T06:40:04;0.50;;;0.50;;
37793;SDS011;23632;48.826;15.176;2022-09-01T06:42:36;0.50;;;0.50;;
37793;SDS011;23632;48.826;15.176;2022-09-01T06:45:03;0.60;;;0.60;;
37793;SDS011;23632;48.826;15.176;2022-09-01T06:47:36;0.50;;;0.50;;
37793;SDS011;23632;48.826;15.176;2022-09-01T06:50:03;0.50;;;0.50;;
37793;SDS011;23632;48.826;15.176;2022-09-01T06:52:34;0.50;;;0.50;;
37793;SDS011;23632;48.826;15.176;2022-09-01T06:55:24;0.50;;;0.50;;
37793;SDS011;23632;48.826;15.176;2022-09-01T06:57:51;0.50;;;0.50;;
37793;SDS011;23632;48.826;15.176;2022-09-01T07:00:45;0.50;;;0.50;;
37793;SDS011;23632;48.826;15.176;2022-09-01T07:03:14;0.50;;;0.50;;
37793;SDS011;23632;48.826;15.176;2022-09-01T07:06:15;0.50;;;0.50;;
37793;SDS011;23632;48.826;15.176;2022-09-01T07:09:31;0.50;;;0.50;;
37793;SDS011;23632;48.826;15.176;2022-09-01T07:12:22;0.50;;;0.50;;
37793;SDS011;23632;48.826;15.176;2022-09-01T07:15:10;0.60;;;0.60;;
37793;SDS011;23632;48.826;15.176;2022-09-01T07:18:01;0.60;;;0.60;;
37793;SDS011;23632;48.826;15.176;2022-09-01T07:20:28;0.50;;;0.50;;
37793;SDS011;23632;48.826;15.176;2022-09-01T07:23:03;0.60;;;0.60;;
37793;SDS011;23632;48.826;15.176;2022-09-01T07:25:43;0.50;;;0.50;;
37793;SDS011;23632;48.826;15.176;2022-09-01T07:28:48;0.50;;;0.50;;
37793;SDS011;23632;48.826;15.176;2022-09-01T07:31:20;0.70;;;0.70;;
37793;SDS011;23632;48.826;15.176;2022-09-01T07:34:14;0.60;;;0.60;;
37793;SDS011;23632;48.826;15.176;2022-09-01T07:37:03;0.55;;;0.55;;
37793;SDS011;23632;48.826;15.176;2022-09-01T07:39:51;0.60;;;0.60;;
37793;SDS011;23632;48.826;15.176;2022-09-01T07:42:40;0.50;;;0.50;;
37793;SDS011;23632;48.826;15.176;2022-09-01T07:45:47;0.50;;;0.50;;
37793;SDS011;23632;48.826;15.176;2022-09-01T07:48:25;0.50;;;0.50;;
37793;SDS011;23632;48.826;15.176;2022-09-01T07:51:14;0.40;;;0.40;;
37793;SDS011;23632;48.826;15.176;2022-09-01T07:54:03;0.50;;;0.50;;
37793;SDS011;23632;48.826;15.176;2022-09-01T07:56:31;0.45;;;0.45;;
37793;SDS011;23632;48.826;15.176;2022-09-01T07:59:06;0.50;;;0.50;;
37793;SDS011;23632;48.826;15.176;2022-09-01T08:01:47;0.40;;;0.40;;
37793;SDS011;23632;48.826;15.176;2022-09-01T08:04:15;0.50;;;0.50;;
37793;SDS011;23632;48.826;15.176;2022-09-01T08:06:48;0.40;;;0.40;;
37793;SDS011;23632;48.826;15.176;2022-09-01T08:09:15;0.40;;;0.40;;
37793;SDS011;23632;48.826;15.176;2022-09-01T08:11:58;0.43;;;0.43;;
37793;SDS011;23632;48.826;15.176;2022-09-01T08:14:30;0.50;;;0.50;;
37793;SDS011;23632;48.826;15.176;2022-09-01T08:16:59;0.45;;;0.45;;
37793;SDS011;23632;48.826;15.176;2022-09-01T08:19:43;0.50;;;0.50;;
37793;SDS011;23632;48.826;15.176;2022-09-01T08:22:19;0.40;;;0.40;;
37793;SDS011;23632;48.826;15.176;2022-09-01T08:25:02;0.40;;;0.40;;
37793;SDS011;23632;48.826;15.176;2022-09-01T08:27:33;0.50;;;0.50;;
37793;SDS011;23632;48.826;15.176;2022-09-01T08:30:09;0.50;;;0.50;;
37793;SDS011;23632;48.826;15.176;2022-09-01T08:32:42;0.50;;;0.50;;
37793;SDS011;23632;48.826;15.176;2022-09-01T08:35:10;0.40;;;0.40;;
37793;SDS011;23632;48.826;15.176;2022-09-01T08:37:41;0.47;;;0.47;;
37793;SDS011;23632;48.826;15.176;2022-09-01T08:40:11;0.40;;;0.40;;
37793;SDS011;23632;48.826;15.176;2022-09-01T08:45:48;0.40;;;0.40;;
37793;SDS011;23632;48.826;15.176;2022-09-01T08:48:30;0.40;;;0.40;;
37793;SDS011;23632;48.826;15.176;2022-09-01T08:51:38;0.40;;;0.40;;
37793;SDS011;23632;48.826;15.176;2022-09-01T08:57:51;0.60;;;0.60;;
37793;SDS011;23632;48.826;15.176;2022-09-01T09:00:26;0.40;;;0.40;;
37793;SDS011;23632;48.826;15.176;2022-09-01T09:15:56;0.40;;;0.40;;
37793;SDS011;23632;48.826;15.176;2022-09-01T09:22:03;0.40;;;0.40;;
37793;SDS011;23632;48.826;15.176;2022-09-01T09:24:47;0.30;;;0.30;;
37793;SDS011;23632;48.826;15.176;2022-09-01T09:27:25;0.30;;;0.30;;
37793;SDS011;23632;48.826;15.176;2022-09-01T09:32:50;0.50;;;0.50;;
37793;SDS011;23632;48.826;15.176;2022-09-01T09:35:39;0.43;;;0.43;;
37793;SDS011;23632;48.826;15.176;2022-09-01T09:44:03;0.50;;;0.50;;
37793;SDS011;23632;48.826;15.176;2022-09-01T09:46:42;0.40;;;0.40;;
37793;SDS011;23632;48.826;15.176;2022-09-01T09:54:35;0.30;;;0.30;;
37793;SDS011;23632;48.826;15.176;2022-09-01T09:57:23;0.60;;;0.60;;
37793;SDS011;23632;48.826;15.176;2022-09-01T09:59:58;0.30;;;0.30;;
37793;SDS011;23632;48.826;15.176;2022-09-01T10:02:41;0.40;;;0.40;;
37793;SDS011;23632;48.826;15.176;2022-09-01T10:08:36;0.30;;;0.30;;
37793;SDS011;23632;48.826;15.176;2022-09-01T10:11:27;0.40;;;0.40;;
37793;SDS011;23632;48.826;15.176;2022-09-01T10:14:15;0.40;;;0.40;;
37793;SDS011;23632;48.826;15.176;2022-09-01T10:17:08;0.30;;;0.30;;
37793;SDS011;23632;48.826;15.176;2022-09-01T10:19:50;0.60;;;0.60;;
37793;SDS011;23632;48.826;15.176;2022-09-01T10:22:30;0.40;;;0.40;;
37793;SDS011;23632;48.826;15.176;2022-09-01T10:24:59;0.40;;;0.40;;
37793;SDS011;23632;48.826;15.176;2022-09-01T10:27:30;0.30;;;0.30;;
37793;SDS011;23632;48.826;15.176;2022-09-01T10:32:41;0.30;;;0.30;;
37793;SDS011;23632;48.826;15.176;2022-09-01T10:35:25;0.38;;;0.38;;
37793;SDS011;23632;48.826;15.176;2022-09-01T10:38:09;0.45;;;0.45;;
37793;SDS011;23632;48.826;15.176;2022-09-01T10:40:53;0.35;;;0.35;;
37793;SDS011;23632;48.826;15.176;2022-09-01T10:49:03;0.50;;;0.50;;
37793;SDS011;23632;48.826;15.176;2022-09-01T10:51:53;0.40;;;0.40;;
37793;SDS011;23632;48.826;15.176;2022-09-01T10:54:52;0.50;;;0.50;;
37793;SDS011;23632;48.826;15.176;2022-09-01T11:05:59;0.30;;;0.30;;
37793;SDS011;23632;48.826;15.176;2022-09-01T11:08:56;0.55;;;0.55;;
37793;SDS011;23632;48.826;15.176;2022-09-01T11:11:42;0.40;;;0.40;;
37793;SDS011;23632;48.826;15.176;2022-09-01T11:14:22;0.30;;;0.30;;
37793;SDS011;23632;48.826;15.176;2022-09-01T11:22:30;0.50;;;0.50;;
37793;SDS011;23632;48.826;15.176;2022-09-01T11:25:10;0.60;;;0.60;;
37793;SDS011;23632;48.826;15.176;2022-09-01T11:28:11;0.40;;;0.40;;
37793;SDS011;23632;48.826;15.176;2022-09-01T11:41:53;0.43;;;0.43;;
37793;SDS011;23632;48.826;15.176;2022-09-01T11:47:31;0.60;;;0.60;;
37793;SDS011;23632;48.826;15.176;2022-09-01T11:50:22;0.40;;;0.40;;
37793;SDS011;23632;48.826;15.176;2022-09-01T11:55:41;0.35;;;0.35;;
37793;SDS011;23632;48.826;15.176;2022-09-01T11:58:13;0.35;;;0.35;;
37793;SDS011;23632;48.826;15.176;2022-09-01T12:00:57;0.40;;;0.40;;
37793;SDS011;23632;48.826;15.176;2022-09-01T12:03:44;0.57;;;0.57;;
37793;SDS011;23632;48.826;15.176;2022-09-01T12:06:19;0.50;;;0.50;;
37793;SDS011;23632;48.826;15.176;2022-09-01T12:08:59;0.60;;;0.60;;
37793;SDS011;23632;48.826;15.176;2022-09-01T12:11:31;0.30;;;0.30;;
37793;SDS011;23632;48.826;15.176;2022-09-01T12:16:38;0.40;;;0.40;;
37793;SDS011;23632;48.826;15.176;2022-09-01T12:19:20;0.40;;;0.40;;
37793;SDS011;23632;48.826;15.176;2022-09-01T12:22:03;0.30;;;0.30;;
37793;SDS011;23632;48.826;15.176;2022-09-01T12:24:43;0.40;;;0.40;;
37793;SDS011;23632;48.826;15.176;2022-09-01T12:27:13;0.60;;;0.60;;
37793;SDS011;23632;48.826;15.176;2022-09-01T12:29:41;0.35;;;0.35;;
37793;SDS011;23632;48.826;15.176;2022-09-01T12:32:09;0.35;;;0.35;;
37793;SDS011;23632;48.826;15.176;2022-09-01T12:34:41;0.40;;;0.40;;
37793;SDS011;23632;48.826;15.176;2022-09-01T12:37:25;0.30;;;0.30;;
37793;SDS011;23632;48.826;15.176;2022-09-01T12:39:54;0.32;;;0.32;;
37793;SDS011;23632;48.826;15.176;2022-09-01T12:42:25;0.50;;;0.50;;
37793;SDS011;23632;48.826;15.176;2022-09-01T12:45:07;0.40;;;0.40;;
37793;SDS011;23632;48.826;15.176;2022-09-01T12:52:49;0.40;;;0.40;;
37793;SDS011;23632;48.826;15.176;2022-09-01T12:55:22;0.70;;;0.70;;
37793;SDS011;23632;48.826;15.176;2022-09-01T12:58:18;0.30;;;0.30;;
37793;SDS011;23632;48.826;15.176;2022-09-01T13:03:42;0.38;;;0.38;;
37793;SDS011;23632;48.826;15.176;2022-09-01T13:06:54;0.30;;;0.30;;
37793;SDS011;23632;48.826;15.176;2022-09-01T13:09:29;0.60;;;0.60;;
37793;SDS011;23632;48.826;15.176;2022-09-01T13:12:10;0.30;;;0.30;;
37793;SDS011;23632;48.826;15.176;2022-09-01T13:14:45;0.30;;;0.30;;
37793;SDS011;23632;48.826;15.176;2022-09-01T13:17:13;0.30;;;0.30;;
37793;SDS011;23632;48.826;15.176;2022-09-01T13:19:41;0.30;;;0.30;;
37793;SDS011;23632;48.826;15.176;2022-09-01T13:22:09;0.30;;;0.30;;
37793;SDS011;23632;48.826;15.176;2022-09-01T13:24:36;0.40;;;0.40;;
37793;SDS011;23632;48.826;15.176;2022-09-01T13:27:05;0.30;;;0.30;;
37793;SDS011;23632;48.826;15.176;2022-09-01T13:29:49;0.30;;;0.30;;
37793;SDS011;23632;48.826;15.176;2022-09-01T13:32:17;0.40;;;0.40;;
37793;SDS011;23632;48.826;15.176;2022-09-01T13:34:48;0.60;;;0.60;;
37793;SDS011;23632;48.826;15.176;2022-09-01T13:37:18;0.40;;;0.40;;
37793;SDS011;23632;48.826;15.176;2022-09-01T13:39:46;0.45;;;0.45;;
37793;SDS011;23632;48.826;15.176;2022-09-01T13:42:14;0.40;;;0.40;;
37793;SDS011;23632;48.826;15.176;2022-09-01T13:44:42;0.30;;;0.30;;
37793;SDS011;23632;48.826;15.176;2022-09-01T13:47:16;0.40;;;0.40;;
37793;SDS011;23632;48.826;15.176;2022-09-01T13:49:59;0.50;;;0.50;;
37793;SDS011;23632;48.826;15.176;2022-09-01T13:52:41;0.55;;;0.55;;
37793;SDS011;23632;48.826;15.176;2022-09-01T13:55:25;0.32;;;0.32;;
37793;SDS011;23632;48.826;15.176;2022-09-01T13:57:55;0.40;;;0.40;;
37793;SDS011;23632;48.826;15.176;2022-09-01T14:00:25;0.40;;;0.40;;
37793;SDS011;23632;48.826;15.176;2022-09-01T14:02:59;0.40;;;0.40;;
37793;SDS011;23632;48.826;15.176;2022-09-01T14:05:31;0.30;;;0.30;;
37793;SDS011;23632;48.826;15.176;2022-09-01T14:08:02;0.32;;;0.32;;
37793;SDS011;23632;48.826;15.176;2022-09-01T14:10:32;0.40;;;0.40;;
37793;SDS011;23632;48.826;15.176;2022-09-01T14:13:07;0.30;;;0.30;;
37793;SDS011;23632;48.826;15.176;2022-09-01T14:15:35;0.40;;;0.40;;
37793;SDS011;23632;48.826;15.176;2022-09-01T14:18:03;0.40;;;0.40;;
37793;SDS011;23632;48.826;15.176;2022-09-01T14:20:33;0.40;;;0.40;;
37793;SDS011;23632;48.826;15.176;2022-09-01T14:23:05;0.40;;;0.40;;
37793;SDS011;23632;48.826;15.176;2022-09-01T14:25:36;0.40;;;0.40;;
37793;SDS011;23632;48.826;15.176;2022-09-01T14:28:10;0.30;;;0.30;;
37793;SDS011;23632;48.826;15.176;2022-09-01T14:30:39;0.50;;;0.50;;
37793;SDS011;23632;48.826;15.176;2022-09-01T14:33:11;0.30;;;0.30;;
37793;SDS011;23632;48.826;15.176;2022-09-01T14:35:39;0.38;;;0.38;;
37793;SDS011;23632;48.826;15.176;2022-09-01T14:38:12;0.40;;;0.40;;
37793;SDS011;23632;48.826;15.176;2022-09-01T14:40:40;0.30;;;0.30;;
37793;SDS011;23632;48.826;15.176;2022-09-01T14:43:09;0.70;;;0.70;;
37793;SDS011;23632;48.826;15.176;2022-09-01T14:45:40;0.30;;;0.30;;
37793;SDS011;23632;48.826;15.176;2022-09-01T14:48:12;0.30;;;0.30;;
37793;SDS011;23632;48.826;15.176;2022-09-01T14:50:43;0.40;;;0.40;;
37793;SDS011;23632;48.826;15.176;2022-09-01T14:53:16;0.40;;;0.40;;
37793;SDS011;23632;48.826;15.176;2022-09-01T14:55:44;0.40;;;0.40;;
37793;SDS011;23632;48.826;15.176;2022-09-01T14:58:11;0.30;;;0.30;;
37793;SDS011;23632;48.826;15.176;2022-09-01T15:00:38;0.40;;;0.40;;
37793;SDS011;23632;48.826;15.176;2022-09-01T15:03:07;0.30;;;0.30;;
37793;SDS011;23632;48.826;15.176;2022-09-01T15:05:35;0.40;;;0.40;;
37793;SDS011;23632;48.826;15.176;2022-09-01T15:08:06;0.40;;;0.40;;
37793;SDS011;23632;48.826;15.176;2022-09-01T15:10:39;0.50;;;0.50;;
37793;SDS011;23632;48.826;15.176;2022-09-01T15:13:06;0.40;;;0.40;;
37793;SDS011;23632;48.826;15.176;2022-09-01T15:15:34;0.40;;;0.40;;
37793;SDS011;23632;48.826;15.176;2022-09-01T15:18:03;0.30;;;0.30;;
37793;SDS011;23632;48.826;15.176;2022-09-01T15:20:31;0.40;;;0.40;;
37793;SDS011;23632;48.826;15.176;2022-09-01T15:23:20;0.40;;;0.40;;
37793;SDS011;23632;48.826;15.176;2022-09-01T15:25:52;0.40;;;0.40;;
37793;SDS011;23632;48.826;15.176;2022-09-01T15:28:20;0.50;;;0.50;;
37793;SDS011;23632;48.826;15.176;2022-09-01T15:30:48;0.40;;;0.40;;
37793;SDS011;23632;48.826;15.176;2022-09-01T15:33:19;0.40;;;0.40;;
37793;SDS011;23632;48.826;15.176;2022-09-01T15:35:47;0.40;;;0.40;;
37793;SDS011;23632;48.826;15.176;2022-09-01T15:38:15;0.32;;;0.32;;
37793;SDS011;23632;48.826;15.176;2022-09-01T15:40:44;0.43;;;0.43;;
37793;SDS011;23632;48.826;15.176;2022-09-01T15:43:23;0.50;;;0.50;;
37793;SDS011;23632;48.826;15.176;2022-09-01T15:45:51;0.40;;;0.40;;
37793;SDS011;23632;48.826;15.176;2022-09-01T15:48:18;0.40;;;0.40;;
37793;SDS011;23632;48.826;15.176;2022-09-01T15:50:45;0.40;;;0.40;;
37793;SDS011;23632;48.826;15.176;2022-09-01T15:53:12;0.40;;;0.40;;
37793;SDS011;23632;48.826;15.176;2022-09-01T15:55:40;0.40;;;0.40;;
37793;SDS011;23632;48.826;15.176;2022-09-01T15:58:12;0.47;;;0.47;;
37793;SDS011;23632;48.826;15.176;2022-09-01T16:00:42;0.40;;;0.40;;
37793;SDS011;23632;48.826;15.176;2022-09-01T16:03:11;0.50;;;0.50;;
37793;SDS011;23632;48.826;15.176;2022-09-01T16:05:39;0.40;;;0.40;;
37793;SDS011;23632;48.826;15.176;2022-09-01T16:08:06;0.40;;;0.40;;
37793;SDS011;23632;48.826;15.176;2022-09-01T16:10:35;0.40;;;0.40;;
37793;SDS011;23632;48.826;15.176;2022-09-01T16:13:05;0.40;;;0.40;;
37793;SDS011;23632;48.826;15.176;2022-09-01T16:15:33;0.40;;;0.40;;
37793;SDS011;23632;48.826;15.176;2022-09-01T16:20:58;0.40;;;0.40;;
37793;SDS011;23632;48.826;15.176;2022-09-01T16:23:43;0.40;;;0.40;;
37793;SDS011;23632;48.826;15.176;2022-09-01T16:26:18;0.40;;;0.40;;
37793;SDS011;23632;48.826;15.176;2022-09-01T16:28:51;0.40;;;0.40;;
37793;SDS011;23632;48.826;15.176;2022-09-01T16:31:24;0.40;;;0.40;;
37793;SDS011;23632;48.826;15.176;2022-09-01T16:33:56;0.40;;;0.40;;
37793;SDS011;23632;48.826;15.176;2022-09-01T16:39:33;0.40;;;0.40;;
37793;SDS011;23632;48.826;15.176;2022-09-01T16:42:25;0.50;;;0.50;;
37793;SDS011;23632;48.826;15.176;2022-09-01T16:45:14;0.40;;;0.40;;
37793;SDS011;23632;48.826;15.176;2022-09-01T16:59:02;0.55;;;0.55;;
37793;SDS011;23632;48.826;15.176;2022-09-01T17:05:11;0.40;;;0.40;;